createdAt,value
2019-01-02T00:00:38.755Z,4.07
2019-01-02T00:06:43.081Z,4.17
2019-01-02T00:12:47.410Z,4.13
2019-01-02T00:18:51.950Z,3.40
2019-01-02T00:24:56.272Z,3.70
2019-01-02T00:31:00.528Z,3.73
2019-01-02T00:37:04.712Z,4.40
2019-01-02T00:43:09.149Z,3.40
2019-01-02T00:49:13.465Z,3.50
2019-01-02T00:55:17.748Z,3.93
2019-01-02T01:01:22.064Z,3.10
2019-01-02T01:07:26.516Z,3.40
2019-01-02T01:13:30.708Z,3.00
2019-01-02T01:19:35.422Z,3.63
2019-01-02T01:25:39.696Z,3.07
2019-01-02T01:31:43.945Z,2.90
2019-01-02T01:37:50.957Z,3.50
2019-01-02T01:43:55.294Z,3.27
2019-01-02T01:49:59.489Z,2.83
2019-01-02T01:56:04.168Z,2.43
2019-01-02T02:02:08.358Z,3.10
2019-01-02T02:08:12.555Z,2.90
2019-01-02T02:14:16.841Z,3.27
2019-01-02T02:20:21.080Z,3.20
2019-01-02T02:26:25.269Z,2.57
2019-01-02T02:32:32.311Z,3.30
2019-01-02T02:38:36.875Z,2.83
2019-01-02T02:44:41.430Z,3.40
2019-01-02T02:50:45.834Z,2.40
2019-01-02T02:56:50.297Z,2.43
2019-01-02T03:02:54.857Z,2.70
2019-01-02T03:08:59.101Z,2.83
2019-01-02T03:15:03.386Z,3.30
2019-01-02T03:21:07.711Z,2.47
2019-01-02T03:27:11.978Z,4.00
2019-01-02T03:33:16.434Z,2.37
2019-01-02T03:39:20.636Z,2.87
2019-01-02T03:45:24.830Z,3.17
2019-01-02T03:51:29.010Z,2.70
2019-01-02T03:57:33.441Z,2.53
2019-01-02T04:03:37.622Z,2.13
2019-01-02T04:09:41.984Z,2.73
2019-01-02T04:15:46.188Z,2.13
2019-01-02T04:21:50.494Z,2.40
2019-01-02T04:27:54.668Z,2.43
2019-01-02T04:33:59.034Z,2.20
2019-01-02T04:40:03.200Z,2.00
2019-01-02T04:46:07.649Z,2.10
2019-01-02T04:52:11.820Z,2.00
2019-01-02T04:58:16.184Z,2.60
2019-01-02T05:04:20.378Z,2.73
2019-01-02T05:10:24.757Z,2.43
2019-01-02T05:16:30.646Z,2.77
2019-01-02T05:22:34.908Z,3.10
2019-01-02T05:28:39.096Z,3.03
2019-01-02T05:34:43.292Z,3.47
2019-01-02T05:40:47.601Z,3.03
2019-01-02T05:46:51.813Z,3.03
2019-01-02T05:52:56.161Z,2.80
2019-01-02T05:59:00.340Z,2.80
2019-01-02T06:05:04.798Z,3.70
2019-01-02T06:11:09.004Z,3.00
2019-01-02T06:17:13.219Z,2.80
2019-01-02T06:23:17.399Z,2.93
2019-01-02T06:29:23.791Z,2.90
2019-01-02T06:35:29.156Z,3.20
2019-01-02T06:41:33.355Z,2.93
2019-01-02T06:47:37.612Z,2.90
2019-01-02T06:53:41.867Z,2.50
2019-01-02T06:59:47.278Z,2.40
2019-01-02T07:05:51.481Z,2.80
2019-01-02T07:11:55.654Z,4.07
2019-01-02T07:17:59.934Z,3.20
2019-01-02T07:24:04.792Z,3.83
2019-01-02T07:30:12.858Z,3.00
2019-01-02T07:37:09.252Z,3.40
2019-01-02T07:44:08.280Z,2.73
2019-01-02T07:50:47.836Z,3.07
2019-01-02T07:57:08.692Z,3.13
2019-01-02T08:03:26.239Z,2.40
2019-01-02T08:10:14.234Z,2.60
2019-01-02T08:16:48.246Z,2.60
2019-01-02T08:23:39.242Z,2.00
2019-01-02T08:30:33.131Z,2.53
2019-01-02T08:37:19.800Z,2.80
2019-01-02T08:43:55.623Z,3.70
2019-01-02T08:51:02.085Z,2.90
2019-01-02T08:57:52.655Z,3.00
2019-01-02T09:04:48.761Z,3.10
2019-01-02T09:11:27.563Z,2.57
2019-01-02T09:18:20.529Z,2.80
2019-01-02T09:25:07.437Z,2.63
2019-01-02T09:31:32.597Z,3.00
2019-01-02T09:38:18.025Z,2.43
2019-01-02T09:45:06.279Z,1.50
2019-01-02T09:51:58.991Z,1.90
2019-01-02T09:58:45.915Z,2.70
2019-01-02T10:05:39.858Z,2.37
2019-01-02T10:11:55.384Z,2.33
2019-01-02T10:18:40.774Z,2.50
2019-01-02T10:25:21.791Z,2.83
2019-01-02T10:32:18.660Z,2.77
2019-01-02T10:39:02.676Z,2.53
2019-01-02T10:45:37.636Z,3.93
2019-01-02T10:52:14.007Z,2.53
2019-01-02T10:59:08.052Z,2.67
2019-01-02T11:05:43.971Z,2.50
2019-01-02T11:12:37.846Z,2.40
2019-01-02T11:19:34.782Z,2.37
2019-01-02T11:26:18.136Z,2.63
2019-01-02T11:33:21.516Z,2.20
2019-01-02T11:39:42.514Z,1.90
2019-01-02T11:45:46.723Z,2.37
2019-01-02T11:51:50.892Z,2.20
2019-01-02T11:57:55.063Z,2.30
2019-01-02T12:03:59.342Z,1.93
2019-01-02T12:10:03.667Z,2.10
2019-01-02T12:16:07.921Z,2.10
2019-01-02T12:22:12.118Z,3.93
2019-01-02T12:28:16.537Z,2.30
2019-01-02T12:34:20.737Z,2.87
2019-01-02T12:40:24.959Z,3.20
2019-01-02T12:46:29.151Z,4.33
2019-01-02T12:52:33.338Z,3.43
2019-01-02T12:58:37.524Z,6.67
2019-01-02T13:05:13.959Z,2.70
2019-01-02T13:11:48.871Z,3.00
2019-01-02T13:18:40.313Z,2.93
2019-01-02T13:25:14.055Z,3.67
2019-01-02T13:32:01.484Z,4.17
2019-01-02T13:38:39.341Z,3.97
2019-01-02T13:45:09.723Z,3.13
2019-01-02T13:51:29.790Z,2.67
2019-01-02T13:57:33.966Z,3.40
2019-01-02T14:03:38.198Z,2.53
2019-01-02T14:09:42.423Z,3.30
2019-01-02T14:15:46.578Z,4.27
2019-01-02T14:21:50.914Z,3.57
2019-01-02T14:27:55.106Z,4.40
2019-01-02T14:34:00.210Z,4.17
2019-01-02T14:40:04.470Z,4.80
2019-01-02T14:46:08.642Z,3.73
2019-01-02T14:52:12.914Z,3.70
2019-01-02T14:58:17.100Z,3.60
2019-01-02T15:04:21.343Z,3.50
2019-01-02T15:10:25.511Z,3.30
2019-01-02T15:16:29.746Z,3.27
2019-01-02T15:22:34.038Z,3.20
2019-01-02T15:28:38.219Z,4.60
2019-01-02T15:34:42.387Z,11.20
2019-01-02T15:40:46.579Z,2.97
2019-01-02T15:46:50.860Z,3.60
2019-01-02T15:52:55.037Z,3.33
2019-01-02T15:58:59.497Z,3.37
2019-01-02T16:05:03.763Z,2.87
2019-01-02T16:11:08.083Z,2.97
2019-01-02T16:17:12.271Z,2.97
2019-01-02T16:23:16.587Z,3.50
2019-01-02T16:29:20.749Z,3.57
2019-01-02T16:35:25.249Z,3.70
2019-01-02T16:41:29.404Z,4.87
2019-01-02T16:47:33.630Z,5.20
2019-01-02T16:53:37.811Z,4.40
2019-01-02T16:59:42.243Z,4.80
2019-01-02T17:05:46.421Z,4.70
2019-01-02T17:11:50.789Z,4.80
2019-01-02T17:17:54.973Z,4.30
2019-01-02T17:23:59.333Z,4.63
2019-01-02T17:30:03.612Z,4.37
2019-01-02T17:36:07.836Z,3.97
2019-01-02T17:42:12.038Z,4.17
2019-01-02T17:48:16.870Z,4.73
2019-01-02T17:54:21.207Z,4.10
2019-01-02T18:00:25.494Z,4.30
2019-01-02T18:06:29.738Z,4.40
2019-01-02T18:12:34.035Z,5.03
2019-01-02T18:18:38.373Z,4.87
2019-01-02T18:24:42.580Z,4.47
2019-01-02T18:30:46.879Z,4.47
2019-01-02T18:36:51.088Z,10.57
2019-01-02T18:42:55.383Z,6.00
2019-01-02T18:48:59.565Z,6.53
2019-01-02T18:55:04.030Z,5.80
2019-01-02T19:01:08.215Z,5.90
2019-01-02T19:07:12.557Z,8.30
2019-01-02T19:13:16.815Z,6.97
2019-01-02T19:19:21.047Z,7.20
2019-01-02T19:25:25.235Z,6.50
2019-01-02T19:31:29.581Z,6.70
2019-01-02T19:37:33.782Z,7.40
2019-01-02T19:43:38.135Z,8.40
2019-01-02T19:49:42.381Z,6.80
2019-01-02T19:55:50.925Z,6.50
2019-01-02T20:01:55.106Z,5.73
2019-01-02T20:07:59.391Z,7.10
2019-01-02T20:14:03.678Z,5.67
2019-01-02T20:20:09.791Z,6.40
2019-01-02T20:26:14.076Z,7.13
2019-01-02T20:32:18.533Z,6.23
2019-01-02T20:38:22.706Z,6.47
2019-01-02T20:44:26.877Z,6.53
2019-01-02T20:50:31.071Z,6.63
2019-01-02T20:56:35.411Z,7.37
2019-01-02T21:02:39.588Z,6.87
2019-01-02T21:08:46.114Z,7.80
2019-01-02T21:14:50.315Z,7.40
2019-01-02T21:20:54.622Z,7.07
2019-01-02T21:26:58.907Z,6.50
2019-01-02T21:33:03.165Z,7.33
2019-01-02T21:39:08.122Z,6.20
2019-01-02T21:45:12.627Z,5.77
2019-01-02T21:51:16.885Z,6.37
2019-01-02T21:57:21.574Z,5.73
2019-01-02T22:03:27.957Z,6.20
2019-01-02T22:09:32.124Z,5.63
2019-01-02T22:15:36.374Z,5.10
2019-01-02T22:21:40.549Z,5.67
2019-01-02T22:27:44.854Z,6.53
2019-01-02T22:33:49.051Z,6.63
2019-01-02T22:39:53.394Z,7.40
2019-01-02T22:45:57.618Z,6.43
2019-01-02T22:52:01.896Z,5.97
2019-01-02T22:58:06.092Z,5.73
2019-01-02T23:04:18.672Z,5.00
2019-01-02T23:10:48.294Z,5.57
2019-01-02T23:17:18.292Z,8.87
2019-01-02T23:23:37.401Z,9.70
2019-01-02T23:30:00.794Z,10.27
2019-01-02T23:36:23.554Z,10.03
2019-01-02T23:42:45.280Z,9.50
2019-01-02T23:49:07.100Z,8.10
2019-01-02T23:55:48.328Z,5.27
